Time;durP1;ratioP1;P1;durP2;ratioP2;P2;SDS_P1;SDS_P2;PMS_P1;PMS_P2;Temp;Humidity;BMP_temperature;BMP_pressure;BME280_temperature;BME280_humidity;BME280_pressure;Samples;Min_cycle;Max_cycle;Signal;HPM_P1;HPM_P2
2021/12/15 00:00:23;;;;;;;;;131.20;128.80;;;;;;;;5052070;28;8812;-77
2021/12/15 00:02:51;;;;;;;;;148.60;140.20;;;;;;;;5050474;27;8896;-76
2021/12/15 00:05:22;;;;;;;;;149.00;142.33;;;;;;;;5062928;28;8722;-79
2021/12/15 00:07:49;;;;;;;;;161.43;155.57;;;;;;;;5056456;27;8835;-78
2021/12/15 00:10:15;;;;;;;;;158.17;157.17;;;;;;;;5051789;27;9834;-79
2021/12/15 00:12:40;;;;;;;;;154.60;150.80;;;;;;;;5056840;28;8793;-79
2021/12/15 00:15:06;;;;;;;;;129.40;125.80;;;;;;;;5054432;27;9615;-79
2021/12/15 00:17:31;;;;;;;;;149.20;143.40;;;;;;;;5070854;28;8805;-79
2021/12/15 00:19:57;;;;;;;;;150.40;144.40;;;;;;;;5072179;27;8802;-79
2021/12/15 00:22:22;;;;;;;;;156.60;154.80;;;;;;;;5058957;28;9117;-79
2021/12/15 00:24:48;;;;;;;;;179.40;176.20;;;;;;;;5070710;27;8809;-79
2021/12/15 00:27:13;;;;;;;;;151.00;144.75;;;;;;;;5070557;28;8817;-79
2021/12/15 00:29:38;;;;;;;;;172.40;170.00;;;;;;;;5059517;28;9509;-79
2021/12/15 00:32:04;;;;;;;;;164.75;161.75;;;;;;;;5069888;27;8845;-79
2021/12/15 00:34:31;;;;;;;;;138.20;134.00;;;;;;;;5061319;28;8812;-79
2021/12/15 00:36:57;;;;;;;;;176.00;167.40;;;;;;;;5051499;27;8788;-80
2021/12/15 00:39:22;;;;;;;;;141.00;135.40;;;;;;;;5052399;28;10522;-79
2021/12/15 00:41:47;;;;;;;;;154.00;147.25;;;;;;;;5051839;27;8884;-79
2021/12/15 00:44:13;;;;;;;;;156.80;153.00;;;;;;;;5064420;27;8808;-79
2021/12/15 00:46:39;;;;;;;;;140.00;136.60;;;;;;;;5051442;27;8801;-79
2021/12/15 00:49:05;;;;;;;;;126.50;122.67;;;;;;;;5052317;28;8995;-79
2021/12/15 00:51:31;;;;;;;;;131.20;126.20;;;;;;;;5051697;27;8888;-79
2021/12/15 00:53:57;;;;;;;;;126.40;123.20;;;;;;;;5051967;28;8803;-79
2021/12/15 00:56:22;;;;;;;;;164.40;160.20;;;;;;;;5051678;27;8811;-79
2021/12/15 00:58:48;;;;;;;;;140.20;135.00;;;;;;;;5051255;27;9606;-79
2021/12/15 01:01:13;;;;;;;;;145.00;141.00;;;;;;;;5051791;27;8830;-79
2021/12/15 01:03:39;;;;;;;;;140.00;133.60;;;;;;;;5051285;28;8804;-79
2021/12/15 01:06:07;;;;;;;;;139.60;137.60;;;;;;;;5074843;27;9006;-79
2021/12/15 01:08:35;;;;;;;;;147.00;141.00;;;;;;;;5051374;27;9737;-79
2021/12/15 01:11:15;;;;;;;;;132.67;128.00;;;;;;;;5049982;28;9829;-79
2021/12/15 01:21:56;;;;;;;;;122.00;120.20;;;;;;;;5050977;28;9757;-80
2021/12/15 01:24:22;;;;;;;;;128.00;123.80;;;;;;;;5053573;27;10270;-79
2021/12/15 01:26:47;;;;;;;;;121.80;116.60;;;;;;;;5052793;28;8919;-79
2021/12/15 01:29:12;;;;;;;;;145.00;141.25;;;;;;;;5053151;27;8833;-79
2021/12/15 01:31:38;;;;;;;;;128.60;124.80;;;;;;;;5071675;28;8868;-79
2021/12/15 01:34:03;;;;;;;;;114.20;110.00;;;;;;;;5054469;27;8796;-79
2021/12/15 01:36:29;;;;;;;;;117.00;112.50;;;;;;;;5059420;28;8793;-79
2021/12/15 01:38:54;;;;;;;;;124.60;121.60;;;;;;;;5058062;27;8812;-79
2021/12/15 01:41:22;;;;;;;;;153.20;149.60;;;;;;;;5059301;28;8892;-79
2021/12/15 01:49:06;;;;;;;;;136.17;133.33;;;;;;;;5050884;28;10260;-79
2021/12/15 01:51:31;;;;;;;;;122.40;120.40;;;;;;;;5051465;28;8816;-79
2021/12/15 01:53:56;;;;;;;;;136.75;134.00;;;;;;;;5069197;28;8998;-79
2021/12/15 01:56:22;;;;;;;;;116.00;114.00;;;;;;;;5071751;27;8889;-79
2021/12/15 01:58:47;;;;;;;;;115.40;111.60;;;;;;;;5066098;28;11531;-79
2021/12/15 02:01:13;;;;;;;;;121.40;116.60;;;;;;;;5051562;27;8794;-79
2021/12/15 02:03:39;;;;;;;;;148.25;144.50;;;;;;;;5058352;28;8807;-79
2021/12/15 02:06:04;;;;;;;;;137.00;132.40;;;;;;;;5061359;27;8813;-79
2021/12/15 02:08:30;;;;;;;;;127.80;126.20;;;;;;;;5059688;27;8809;-79
2021/12/15 02:10:57;;;;;;;;;131.00;126.40;;;;;;;;5053044;28;9237;-79
2021/12/15 02:13:22;;;;;;;;;149.83;148.33;;;;;;;;5058661;27;8826;-80
2021/12/15 02:15:49;;;;;;;;;164.25;163.50;;;;;;;;5050713;28;8796;-79
2021/12/15 02:18:16;;;;;;;;;128.80;124.60;;;;;;;;5060534;27;8794;-79
2021/12/15 02:20:45;;;;;;;;;129.67;125.17;;;;;;;;5069131;27;8809;-79
2021/12/15 02:23:12;;;;;;;;;138.83;133.17;;;;;;;;5070894;27;8768;-79
2021/12/15 02:25:38;;;;;;;;;129.00;126.33;;;;;;;;5059629;28;8816;-79
2021/12/15 02:28:06;;;;;;;;;160.80;158.20;;;;;;;;5060406;27;8881;-79
2021/12/15 02:30:48;;;;;;;;;159.00;155.40;;;;;;;;5053812;28;8885;-79
2021/12/15 02:38:40;;;;;;;;;127.83;123.67;;;;;;;;5054910;28;8792;-79
2021/12/15 02:41:12;;;;;;;;;142.60;137.40;;;;;;;;5050872;28;8819;-80
2021/12/15 02:43:37;;;;;;;;;129.20;126.20;;;;;;;;5054833;27;8788;-80
2021/12/15 02:46:03;;;;;;;;;125.20;119.00;;;;;;;;5050410;28;8792;-79
2021/12/15 02:48:29;;;;;;;;;127.00;123.50;;;;;;;;5049593;27;8843;-79
2021/12/15 02:50:55;;;;;;;;;136.00;132.50;;;;;;;;5050031;28;8820;-79
2021/12/15 02:53:20;;;;;;;;;137.20;132.60;;;;;;;;5058352;27;8812;-80
2021/12/15 02:55:46;;;;;;;;;134.50;129.00;;;;;;;;5050487;28;11614;-80
2021/12/15 02:58:11;;;;;;;;;125.80;121.80;;;;;;;;5055383;27;8919;-80
2021/12/15 03:00:53;;;;;;;;;118.50;113.50;;;;;;;;5061412;28;8896;-80
2021/12/15 03:06:20;;;;;;;;;124.17;120.83;;;;;;;;5069057;27;8848;-80
2021/12/15 03:08:59;;;;;;;;;109.20;105.00;;;;;;;;5057091;28;8926;-80
2021/12/15 03:16:55;;;;;;;;;136.60;131.40;;;;;;;;5056728;28;8765;-80
2021/12/15 03:19:20;;;;;;;;;121.75;118.00;;;;;;;;5050337;27;8835;-80
2021/12/15 03:21:46;;;;;;;;;124.00;118.00;;;;;;;;5049540;28;8812;-80
2021/12/15 03:24:15;;;;;;;;;151.80;149.40;;;;;;;;5050212;27;8870;-80
2021/12/15 03:26:49;;;;;;;;;126.80;125.60;;;;;;;;5049932;28;8832;-80
2021/12/15 03:35:20;;;;;;;;;143.67;143.67;;;;;;;;5056988;28;8804;-80
2021/12/15 03:37:47;;;;;;;;;128.33;121.00;;;;;;;;5049463;28;9705;-80
2021/12/15 03:40:14;;;;;;;;;133.25;129.75;;;;;;;;5049894;27;8826;-80
2021/12/15 03:42:51;;;;;;;;;126.20;118.40;;;;;;;;5052166;28;8854;-80
2021/12/15 03:45:20;;;;;;;;;117.20;112.60;;;;;;;;5086529;27;8860;-80
2021/12/15 03:47:47;;;;;;;;;128.67;126.50;;;;;;;;5052234;28;9734;-80
2021/12/15 03:50:14;;;;;;;;;134.50;130.25;;;;;;;;5052436;27;8896;-80
2021/12/15 03:52:39;;;;;;;;;124.00;122.80;;;;;;;;5052409;28;10049;-80
2021/12/15 03:55:06;;;;;;;;;127.80;124.80;;;;;;;;5052782;27;8871;-80
2021/12/15 03:57:31;;;;;;;;;149.17;145.83;;;;;;;;5052685;28;8855;-80
2021/12/15 03:59:57;;;;;;;;;158.20;156.00;;;;;;;;5052554;27;8820;-80
2021/12/15 04:02:23;;;;;;;;;125.50;123.75;;;;;;;;5057661;28;8892;-79
2021/12/15 04:04:49;;;;;;;;;124.40;121.40;;;;;;;;5057485;27;8829;-80
2021/12/15 04:07:15;;;;;;;;;122.20;118.80;;;;;;;;5071205;27;8893;-80
2021/12/15 04:09:41;;;;;;;;;104.00;101.60;;;;;;;;5050926;27;8842;-80
2021/12/15 04:12:07;;;;;;;;;134.00;132.00;;;;;;;;5052561;27;8811;-80
2021/12/15 04:14:42;;;;;;;;;118.00;116.25;;;;;;;;5051460;28;9038;-80
2021/12/15 04:17:26;;;;;;;;;119.00;115.80;;;;;;;;5052835;28;8911;-80
2021/12/15 04:19:51;;;;;;;;;113.75;109.00;;;;;;;;5056653;28;8880;-80
2021/12/15 04:22:17;;;;;;;;;143.80;142.60;;;;;;;;5049270;27;8862;-80
2021/12/15 04:24:42;;;;;;;;;109.00;105.50;;;;;;;;5069498;27;8898;-80
2021/12/15 04:27:08;;;;;;;;;103.50;99.75;;;;;;;;5063876;28;8797;-80
2021/12/15 04:29:33;;;;;;;;;154.80;151.00;;;;;;;;5063987;27;8949;-80
2021/12/15 04:32:08;;;;;;;;;155.25;152.75;;;;;;;;5064970;28;9553;-79
2021/12/15 04:34:34;;;;;;;;;139.50;135.17;;;;;;;;5065760;27;8765;-79
2021/12/15 04:36:59;;;;;;;;;98.25;96.25;;;;;;;;5060408;28;9633;-79
2021/12/15 04:39:26;;;;;;;;;147.80;143.00;;;;;;;;5071436;27;9002;-80
2021/12/15 04:41:53;;;;;;;;;158.40;154.80;;;;;;;;5061864;28;8756;-79
2021/12/15 04:44:19;;;;;;;;;131.33;126.67;;;;;;;;5088867;27;8808;-80
2021/12/15 04:46:47;;;;;;;;;125.83;125.67;;;;;;;;5050234;28;8812;-80
2021/12/15 04:49:14;;;;;;;;;118.60;116.60;;;;;;;;5050888;27;8824;-80
2021/12/15 04:51:39;;;;;;;;;136.40;132.60;;;;;;;;5051572;28;11698;-80
2021/12/15 04:54:05;;;;;;;;;131.40;125.80;;;;;;;;5052300;27;8876;-80
2021/12/15 04:56:30;;;;;;;;;166.40;163.40;;;;;;;;5051608;27;8808;-80
2021/12/15 04:58:56;;;;;;;;;124.60;122.80;;;;;;;;5055950;28;8811;-80
2021/12/15 05:01:22;;;;;;;;;107.00;103.80;;;;;;;;5052349;27;8812;-80
2021/12/15 05:03:48;;;;;;;;;114.40;109.20;;;;;;;;5051429;27;8772;-80
2021/12/15 05:06:14;;;;;;;;;158.40;155.20;;;;;;;;5075881;27;8916;-80
2021/12/15 05:08:42;;;;;;;;;155.83;153.67;;;;;;;;5051564;27;8862;-80
2021/12/15 05:11:09;;;;;;;;;105.17;100.67;;;;;;;;5052014;28;8813;-80
2021/12/15 05:13:34;;;;;;;;;108.60;104.60;;;;;;;;5061602;27;8820;-80
2021/12/15 05:15:59;;;;;;;;;152.50;149.00;;;;;;;;5070392;28;8829;-80
2021/12/15 05:18:25;;;;;;;;;149.60;148.20;;;;;;;;5060459;27;8850;-80
2021/12/15 05:20:53;;;;;;;;;149.33;146.17;;;;;;;;5051376;28;8780;-80
2021/12/15 05:23:19;;;;;;;;;122.20;119.40;;;;;;;;5050224;27;8928;-80
2021/12/15 05:25:46;;;;;;;;;155.50;151.25;;;;;;;;5051077;28;8872;-80
2021/12/15 05:28:11;;;;;;;;;155.00;150.80;;;;;;;;5052385;27;10553;-80
2021/12/15 05:30:37;;;;;;;;;150.20;145.40;;;;;;;;5063659;28;8837;-80
2021/12/15 05:33:03;;;;;;;;;157.40;155.00;;;;;;;;5071809;27;8967;-80
2021/12/15 05:35:28;;;;;;;;;128.50;121.75;;;;;;;;5071887;28;9624;-80
2021/12/15 05:37:56;;;;;;;;;132.00;129.50;;;;;;;;5067332;27;8851;-80
2021/12/15 05:40:25;;;;;;;;;150.00;147.20;;;;;;;;5058783;28;8790;-80
2021/12/15 05:42:50;;;;;;;;;161.60;160.20;;;;;;;;5061926;27;8816;-80
2021/12/15 05:45:16;;;;;;;;;136.80;134.80;;;;;;;;5065512;27;8806;-80
2021/12/15 05:47:41;;;;;;;;;102.40;97.40;;;;;;;;5051366;28;8866;-80
2021/12/15 05:50:09;;;;;;;;;111.00;109.00;;;;;;;;5051378;28;8836;-79
2021/12/15 05:52:35;;;;;;;;;135.40;131.20;;;;;;;;5049552;27;9557;-79
2021/12/15 05:55:01;;;;;;;;;122.00;121.20;;;;;;;;5051077;28;8880;-79
2021/12/15 05:57:26;;;;;;;;;130.00;127.00;;;;;;;;5051386;27;8883;-79
2021/12/15 05:59:52;;;;;;;;;132.00;127.80;;;;;;;;5050428;28;10582;-80
2021/12/15 06:02:17;;;;;;;;;128.00;127.20;;;;;;;;5050017;28;8831;-80
2021/12/15 06:04:42;;;;;;;;;105.75;102.75;;;;;;;;5050991;27;9621;-80
2021/12/15 06:07:08;;;;;;;;;159.40;156.40;;;;;;;;5061935;27;9370;-79
2021/12/15 06:09:34;;;;;;;;;104.40;101.00;;;;;;;;5050267;27;8831;-80
2021/12/15 06:12:00;;;;;;;;;119.50;116.67;;;;;;;;5049039;27;9131;-80
2021/12/15 06:14:27;;;;;;;;;121.00;117.80;;;;;;;;5069370;27;8857;-80
2021/12/15 06:17:11;;;;;;;;;123.60;122.80;;;;;;;;5068329;28;8778;-80
2021/12/15 06:19:37;;;;;;;;;115.80;113.40;;;;;;;;5070000;28;9196;-80
2021/12/15 06:22:03;;;;;;;;;108.00;106.20;;;;;;;;5058525;28;10742;-80
2021/12/15 06:24:29;;;;;;;;;123.60;121.00;;;;;;;;5058722;27;8932;-80
2021/12/15 06:26:57;;;;;;;;;124.40;123.00;;;;;;;;5067584;28;8916;-80
2021/12/15 06:29:23;;;;;;;;;150.60;148.40;;;;;;;;5051104;27;8796;-79
2021/12/15 06:31:48;;;;;;;;;119.60;114.80;;;;;;;;5064960;28;8836;-79
2021/12/15 06:34:15;;;;;;;;;113.50;110.75;;;;;;;;5069769;27;8963;-79
2021/12/15 06:36:41;;;;;;;;;118.20;115.20;;;;;;;;5070071;28;8797;-79
2021/12/15 06:39:06;;;;;;;;;119.60;116.80;;;;;;;;5050431;27;8818;-79
2021/12/15 06:41:32;;;;;;;;;124.60;122.00;;;;;;;;5054195;28;8820;-79
2021/12/15 06:43:58;;;;;;;;;127.75;124.00;;;;;;;;5055967;27;8828;-79
2021/12/15 06:46:56;;;;;;;;;131.83;128.83;;;;;;;;5056089;28;8855;-79
2021/12/15 06:59:56;;;;;;;;;127.25;121.75;;;;;;;;5060986;28;8909;-78
2021/12/15 07:02:22;;;;;;;;;118.00;112.75;;;;;;;;5055777;27;9395;-79
2021/12/15 07:04:47;;;;;;;;;142.50;139.00;;;;;;;;5055630;27;9524;-80
2021/12/15 07:07:13;;;;;;;;;121.80;121.00;;;;;;;;5059860;27;8840;-80
2021/12/15 07:09:39;;;;;;;;;130.25;128.75;;;;;;;;5070341;28;8847;-78
2021/12/15 07:12:05;;;;;;;;;124.60;122.40;;;;;;;;5067872;27;8801;-79
2021/12/15 07:14:30;;;;;;;;;141.20;138.00;;;;;;;;5060859;28;8832;-79
2021/12/15 07:16:58;;;;;;;;;127.80;126.00;;;;;;;;5060631;27;11742;-79
2021/12/15 07:22:05;;;;;;;;;150.00;148.67;;;;;;;;5071584;27;8817;-77
2021/12/15 07:24:32;;;;;;;;;116.75;115.00;;;;;;;;5073356;27;8785;-77
2021/12/15 07:26:58;;;;;;;;;159.60;157.20;;;;;;;;5055346;28;10577;-77
2021/12/15 07:29:23;;;;;;;;;123.80;121.20;;;;;;;;5052961;28;8876;-78
2021/12/15 07:31:48;;;;;;;;;111.20;109.60;;;;;;;;5052976;28;8832;-78
2021/12/15 07:34:14;;;;;;;;;134.80;130.60;;;;;;;;5051105;27;8860;-78
2021/12/15 07:36:39;;;;;;;;;129.80;128.00;;;;;;;;5052581;28;8800;-77
2021/12/15 07:39:05;;;;;;;;;145.40;141.60;;;;;;;;5053081;28;8816;-78
2021/12/15 07:41:41;;;;;;;;;110.80;108.40;;;;;;;;5052456;28;8819;-77
2021/12/15 07:44:06;;;;;;;;;149.67;149.33;;;;;;;;5068019;27;8812;-78
2021/12/15 07:46:32;;;;;;;;;129.00;128.00;;;;;;;;5063202;27;8849;-79
2021/12/15 07:48:57;;;;;;;;;139.40;136.60;;;;;;;;5071174;27;8844;-79
2021/12/15 07:51:22;;;;;;;;;160.50;155.25;;;;;;;;5062645;28;8936;-78
2021/12/15 07:53:48;;;;;;;;;136.80;133.80;;;;;;;;5067278;27;8827;-78
2021/12/15 07:56:14;;;;;;;;;143.80;142.80;;;;;;;;5067571;28;8892;-78
2021/12/15 07:58:39;;;;;;;;;145.17;143.17;;;;;;;;5052604;27;8790;-78
2021/12/15 08:01:05;;;;;;;;;157.80;156.20;;;;;;;;5069655;27;9592;-78
2021/12/15 08:03:31;;;;;;;;;156.50;152.67;;;;;;;;5058776;28;11510;-76
2021/12/15 08:05:57;;;;;;;;;165.67;163.50;;;;;;;;5086368;27;9195;-78
2021/12/15 08:08:23;;;;;;;;;182.33;177.17;;;;;;;;5095701;27;8796;-79
2021/12/15 08:10:48;;;;;;;;;174.80;172.20;;;;;;;;5052370;28;8800;-79
2021/12/15 08:13:15;;;;;;;;;193.67;188.83;;;;;;;;5052705;27;8816;-79
2021/12/15 08:15:41;;;;;;;;;200.67;199.00;;;;;;;;5051911;28;8772;-80
2021/12/15 08:18:06;;;;;;;;;197.83;195.50;;;;;;;;5052031;27;8784;-79
2021/12/15 08:20:32;;;;;;;;;228.50;225.50;;;;;;;;5051715;28;9027;-79
2021/12/15 08:22:58;;;;;;;;;240.00;238.50;;;;;;;;5050809;27;8804;-79
2021/12/15 08:25:23;;;;;;;;;226.20;219.40;;;;;;;;5058559;28;8824;-79
2021/12/15 08:27:49;;;;;;;;;228.00;228.00;;;;;;;;5067904;27;8813;-76
2021/12/15 08:30:20;;;;;;;;;244.60;242.60;;;;;;;;5053433;28;8788;-78
2021/12/15 08:32:50;;;;;;;;;244.86;244.14;;;;;;;;5067875;28;9719;-78
2021/12/15 08:35:17;;;;;;;;;267.20;263.80;;;;;;;;5071920;28;8925;-78
2021/12/15 08:37:43;;;;;;;;;188.17;185.33;;;;;;;;5070749;27;12455;-78
2021/12/15 08:40:08;;;;;;;;;231.20;228.40;;;;;;;;5070499;28;8817;-78
2021/12/15 08:42:33;;;;;;;;;324.40;319.20;;;;;;;;5070120;27;8832;-78
2021/12/15 08:44:59;;;;;;;;;278.40;277.20;;;;;;;;5088595;27;8812;-78
2021/12/15 08:47:24;;;;;;;;;310.33;308.83;;;;;;;;5051615;27;8919;-78
2021/12/15 08:49:50;;;;;;;;;191.00;188.33;;;;;;;;5051220;28;8828;-78
2021/12/15 08:52:15;;;;;;;;;228.75;226.75;;;;;;;;5049781;27;8878;-78
2021/12/15 08:54:40;;;;;;;;;214.00;212.60;;;;;;;;5051286;28;8796;-78
2021/12/15 08:57:07;;;;;;;;;243.60;243.20;;;;;;;;5051207;27;8816;-79
2021/12/15 08:59:33;;;;;;;;;294.17;292.33;;;;;;;;5049837;28;9674;-78
2021/12/15 09:01:58;;;;;;;;;222.40;217.00;;;;;;;;5050968;27;9497;-78
2021/12/15 09:04:23;;;;;;;;;270.17;269.83;;;;;;;;5051199;28;8816;-78
2021/12/15 09:06:49;;;;;;;;;267.80;266.00;;;;;;;;5062110;27;8820;-78
2021/12/15 09:09:15;;;;;;;;;223.00;221.60;;;;;;;;5051102;28;8912;-78
2021/12/15 09:11:41;;;;;;;;;220.50;216.67;;;;;;;;5050867;27;8759;-76
2021/12/15 09:14:10;;;;;;;;;226.67;225.83;;;;;;;;5058201;27;8798;-79
2021/12/15 09:16:35;;;;;;;;;300.00;297.43;;;;;;;;5052933;27;8799;-77
2021/12/15 09:19:01;;;;;;;;;331.33;328.50;;;;;;;;5049715;27;8824;-78
2021/12/15 09:21:29;;;;;;;;;200.60;199.40;;;;;;;;5055175;28;8867;-77
2021/12/15 09:23:55;;;;;;;;;249.83;248.33;;;;;;;;5070743;27;8786;-76
2021/12/15 09:26:21;;;;;;;;;293.00;290.50;;;;;;;;5053319;28;8780;-77
2021/12/15 09:28:47;;;;;;;;;223.00;220.20;;;;;;;;5050371;27;8851;-78
2021/12/15 09:31:15;;;;;;;;;236.50;228.67;;;;;;;;5050090;28;9006;-79
2021/12/15 09:33:42;;;;;;;;;231.40;228.60;;;;;;;;5050580;27;8814;-77
2021/12/15 09:36:08;;;;;;;;;236.25;232.50;;;;;;;;5066226;28;9929;-78
2021/12/15 09:38:33;;;;;;;;;219.00;218.17;;;;;;;;5059226;28;11516;-77
2021/12/15 09:41:01;;;;;;;;;210.00;208.33;;;;;;;;5053426;27;9579;-76
2021/12/15 09:43:28;;;;;;;;;207.17;202.33;;;;;;;;5053902;27;8831;-77
2021/12/15 09:46:02;;;;;;;;;150.40;148.80;;;;;;;;5054767;27;9035;-76
2021/12/15 10:18:24;;;;;;;;;132.80;131.60;;;;;;;;5050227;28;8705;-76
2021/12/15 10:20:50;;;;;;;;;125.00;124.50;;;;;;;;5050214;28;8776;-76
2021/12/15 10:23:22;;;;;;;;;118.40;115.00;;;;;;;;5050675;28;8904;-76
2021/12/15 10:25:49;;;;;;;;;129.20;128.40;;;;;;;;5048555;28;9709;-76
2021/12/15 10:28:19;;;;;;;;;129.20;125.80;;;;;;;;5060352;28;8782;-76
2021/12/15 10:30:45;;;;;;;;;111.67;108.33;;;;;;;;5061342;27;8910;-76
2021/12/15 10:33:13;;;;;;;;;120.20;119.20;;;;;;;;5050862;28;11327;-76
2021/12/15 10:35:41;;;;;;;;;77.60;64.60;;;;;;;;5050314;27;8760;-76
2021/12/15 10:38:27;;;;;;;;;109.60;107.00;;;;;;;;5049102;28;8834;-77
2021/12/15 10:41:00;;;;;;;;;100.75;99.25;;;;;;;;5049043;27;8749;-77
2021/12/15 10:43:30;;;;;;;;;113.75;112.00;;;;;;;;5057183;27;8910;-77
2021/12/15 10:45:57;;;;;;;;;88.60;84.40;;;;;;;;5049761;27;11085;-77
2021/12/15 10:48:34;;;;;;;;;128.40;123.60;;;;;;;;5052899;28;8885;-77
2021/12/15 10:51:00;;;;;;;;;87.00;79.00;;;;;;;;5054704;28;9614;-77
2021/12/15 10:53:34;;;;;;;;;82.00;71.00;;;;;;;;5058110;28;11582;-78
2021/12/15 10:56:00;;;;;;;;;80.40;69.00;;;;;;;;5064960;28;8865;-77
2021/12/15 10:58:33;;;;;;;;;87.20;79.60;;;;;;;;5050178;27;8829;-78
2021/12/15 11:01:00;;;;;;;;;85.50;77.75;;;;;;;;5057259;27;8789;-78
2021/12/15 11:03:36;;;;;;;;;83.50;75.50;;;;;;;;5060400;28;8832;-77
2021/12/15 11:06:18;;;;;;;;;92.80;90.20;;;;;;;;5042960;27;8800;-77
2021/12/15 11:08:43;;;;;;;;;79.50;66.50;;;;;;;;5050206;28;8811;-77
2021/12/15 11:11:09;;;;;;;;;86.00;79.20;;;;;;;;5048422;27;8840;-77
2021/12/15 11:13:34;;;;;;;;;77.50;62.50;;;;;;;;5050652;28;8869;-81
2021/12/15 11:16:04;;;;;;;;;78.50;65.25;;;;;;;;5050300;27;8927;-78
2021/12/15 11:18:35;;;;;;;;;79.60;66.60;;;;;;;;5050597;28;11445;-79
2021/12/15 11:21:07;;;;;;;;;80.40;70.00;;;;;;;;5049502;28;8843;-79
2021/12/15 11:23:33;;;;;;;;;80.80;69.00;;;;;;;;5050663;28;8889;-79
2021/12/15 11:26:06;;;;;;;;;86.50;78.00;;;;;;;;5049922;27;8879;-79
2021/12/15 11:28:34;;;;;;;;;72.20;58.40;;;;;;;;5050398;28;8895;-78
2021/12/15 11:31:01;;;;;;;;;83.75;75.75;;;;;;;;5050063;27;8830;-78
2021/12/15 11:33:27;;;;;;;;;88.40;83.80;;;;;;;;5050133;27;8807;-78
2021/12/15 11:35:55;;;;;;;;;83.00;71.50;;;;;;;;5049666;27;8811;-77
2021/12/15 11:38:23;;;;;;;;;78.00;67.00;;;;;;;;5048692;27;8812;-77
2021/12/15 11:40:51;;;;;;;;;77.80;65.60;;;;;;;;5048561;27;8993;-76
2021/12/15 11:43:35;;;;;;;;;88.20;81.60;;;;;;;;5059033;27;8766;-77
2021/12/15 11:46:02;;;;;;;;;88.60;84.40;;;;;;;;5048255;27;8776;-78
2021/12/15 11:48:32;;;;;;;;;71.25;58.50;;;;;;;;5049806;27;8827;-78
2021/12/15 11:50:58;;;;;;;;;81.00;69.25;;;;;;;;5049413;28;8784;-77
2021/12/15 11:53:30;;;;;;;;;85.80;77.00;;;;;;;;5048251;27;8838;-77
2021/12/15 11:56:10;;;;;;;;;83.20;70.60;;;;;;;;5049702;28;8745;-77
2021/12/15 11:58:35;;;;;;;;;71.60;58.40;;;;;;;;5050113;28;8867;-75
2021/12/15 12:01:00;;;;;;;;;83.50;74.00;;;;;;;;5049474;27;8861;-80
2021/12/15 12:03:26;;;;;;;;;80.00;67.00;;;;;;;;5049581;27;8824;-79
2021/12/15 12:05:51;;;;;;;;;91.00;87.00;;;;;;;;5061307;27;8825;-80
2021/12/15 12:08:16;;;;;;;;;87.20;82.60;;;;;;;;5052414;27;9630;-81
2021/12/15 12:10:48;;;;;;;;;78.50;65.25;;;;;;;;5052716;28;8832;-77
2021/12/15 12:13:20;;;;;;;;;68.60;55.40;;;;;;;;5052133;27;8801;-77
2021/12/15 12:15:47;;;;;;;;;77.50;62.00;;;;;;;;5058998;28;8788;-77
2021/12/15 12:18:15;;;;;;;;;78.00;66.20;;;;;;;;5052114;27;8784;-75
2021/12/15 12:20:43;;;;;;;;;77.00;64.00;;;;;;;;5057567;28;9626;-75
2021/12/15 12:23:10;;;;;;;;;82.00;71.80;;;;;;;;5058865;27;8833;-75
2021/12/15 12:25:45;;;;;;;;;92.20;90.20;;;;;;;;5055506;27;8838;-75
2021/12/15 12:28:12;;;;;;;;;109.20;107.80;;;;;;;;5053058;27;8846;-75
2021/12/15 12:30:39;;;;;;;;;82.60;73.20;;;;;;;;5072485;28;8774;-75
2021/12/15 12:33:08;;;;;;;;;83.60;75.80;;;;;;;;5058977;27;8749;-75
2021/12/15 12:35:34;;;;;;;;;82.60;73.20;;;;;;;;5052233;28;8827;-75
2021/12/15 12:38:01;;;;;;;;;82.00;70.25;;;;;;;;5051875;27;8804;-75
2021/12/15 12:40:33;;;;;;;;;89.20;84.60;;;;;;;;5052240;28;8816;-75
2021/12/15 12:42:59;;;;;;;;;89.40;87.20;;;;;;;;5070074;27;8796;-75
2021/12/15 12:45:33;;;;;;;;;88.75;82.50;;;;;;;;5107484;27;9516;-75
2021/12/15 12:48:27;;;;;;;;;112.80;112.40;;;;;;;;5057056;27;12449;-75
2021/12/15 12:59:24;;;;;;;;;88.40;83.40;;;;;;;;5051908;28;8772;-75
2021/12/15 13:01:49;;;;;;;;;82.00;70.80;;;;;;;;5051460;27;8823;-75
2021/12/15 13:04:15;;;;;;;;;83.25;74.00;;;;;;;;5072959;27;8829;-75
2021/12/15 13:06:42;;;;;;;;;89.00;84.00;;;;;;;;5079094;27;9242;-75
2021/12/15 13:09:10;;;;;;;;;87.80;80.60;;;;;;;;5051422;28;8796;-75
2021/12/15 13:11:38;;;;;;;;;81.00;70.75;;;;;;;;5050521;27;10374;-75
2021/12/15 13:14:10;;;;;;;;;81.80;70.20;;;;;;;;5049829;28;8784;-76
2021/12/15 13:16:42;;;;;;;;;83.40;74.40;;;;;;;;5051174;27;8877;-76
2021/12/15 13:19:13;;;;;;;;;83.80;74.60;;;;;;;;5049138;27;9691;-75
2021/12/15 13:30:35;;;;;;;;;83.00;74.25;;;;;;;;5051105;28;8788;-76
2021/12/15 13:33:12;;;;;;;;;79.25;67.25;;;;;;;;5050913;27;9671;-76
2021/12/15 13:35:43;;;;;;;;;80.80;69.60;;;;;;;;5046967;28;8950;-76
2021/12/15 13:38:09;;;;;;;;;82.00;71.80;;;;;;;;5063706;27;8806;-76
2021/12/15 13:40:53;;;;;;;;;81.40;72.20;;;;;;;;5107083;27;8820;-76
2021/12/15 13:43:37;;;;;;;;;77.00;65.80;;;;;;;;5066213;27;8844;-76
2021/12/15 13:46:03;;;;;;;;;81.25;71.50;;;;;;;;5052938;27;9329;-76
2021/12/15 13:48:47;;;;;;;;;75.80;63.80;;;;;;;;5050422;28;8784;-76
2021/12/15 13:51:13;;;;;;;;;72.80;59.80;;;;;;;;5038102;28;8780;-75
2021/12/15 13:53:38;;;;;;;;;84.00;74.75;;;;;;;;5050933;28;8816;-75
2021/12/15 13:56:04;;;;;;;;;80.50;71.00;;;;;;;;5070895;27;8935;-76
2021/12/15 13:58:31;;;;;;;;;85.25;77.25;;;;;;;;5071133;27;8817;-76
2021/12/15 14:00:58;;;;;;;;;79.80;69.00;;;;;;;;5069419;27;8941;-76
2021/12/15 14:03:27;;;;;;;;;75.25;61.25;;;;;;;;5055193;28;8830;-76
2021/12/15 14:05:54;;;;;;;;;76.80;64.20;;;;;;;;5051675;27;8817;-76
2021/12/15 14:08:36;;;;;;;;;69.00;57.25;;;;;;;;5083253;27;8800;-76
2021/12/15 14:11:22;;;;;;;;;79.80;68.20;;;;;;;;5051017;28;8796;-76
2021/12/15 14:14:05;;;;;;;;;83.50;75.25;;;;;;;;5063083;27;8805;-77
2021/12/15 14:16:33;;;;;;;;;84.20;76.20;;;;;;;;5051281;27;11511;-77
2021/12/15 14:19:00;;;;;;;;;81.20;70.00;;;;;;;;5064065;28;8806;-76
2021/12/15 14:21:26;;;;;;;;;77.00;64.00;;;;;;;;5069370;28;8817;-76
2021/12/15 14:23:53;;;;;;;;;77.75;65.50;;;;;;;;5069232;27;8855;-76
2021/12/15 14:26:23;;;;;;;;;70.00;58.25;;;;;;;;5058825;27;8812;-76
2021/12/15 14:28:54;;;;;;;;;80.20;69.40;;;;;;;;5050506;28;8807;-77
2021/12/15 14:31:30;;;;;;;;;71.00;58.00;;;;;;;;5063814;28;8828;-76
2021/12/15 14:33:57;;;;;;;;;66.60;54.80;;;;;;;;5053356;28;9699;-76
2021/12/15 14:36:27;;;;;;;;;76.80;62.40;;;;;;;;5049028;28;8839;-77
2021/12/15 14:38:54;;;;;;;;;85.00;75.40;;;;;;;;5050335;28;8823;-78
2021/12/15 14:41:19;;;;;;;;;65.20;54.00;;;;;;;;5048648;27;8846;-76
2021/12/15 14:43:49;;;;;;;;;55.75;47.25;;;;;;;;5082816;27;8814;-77
2021/12/15 14:46:21;;;;;;;;;67.40;57.00;;;;;;;;5057119;27;8855;-76
2021/12/15 14:48:56;;;;;;;;;66.00;54.75;;;;;;;;5068609;28;8825;-77
2021/12/15 14:51:22;;;;;;;;;67.20;56.20;;;;;;;;5069660;28;8789;-76
2021/12/15 14:53:47;;;;;;;;;77.60;64.60;;;;;;;;5066064;28;8838;-77
2021/12/15 14:56:13;;;;;;;;;39.50;37.50;;;;;;;;5062558;27;10801;-78
2021/12/15 14:58:38;;;;;;;;;58.80;50.00;;;;;;;;5045198;28;8841;-78
2021/12/15 15:01:04;;;;;;;;;9.00;9.00;;;;;;;;5045344;27;8835;-78
2021/12/15 15:03:34;;;;;;;;;21.67;18.33;;;;;;;;5052561;27;8839;-79
2021/12/15 15:06:01;;;;;;;;;19.80;17.20;;;;;;;;5048845;27;8812;-79
2021/12/15 15:08:28;;;;;;;;;42.60;39.20;;;;;;;;5047577;27;9077;-79
2021/12/15 15:10:54;;;;;;;;;12.00;10.60;;;;;;;;5049109;27;8797;-79
2021/12/15 15:13:20;;;;;;;;;28.60;28.40;;;;;;;;5049803;28;8811;-81
2021/12/15 15:15:47;;;;;;;;;52.80;44.60;;;;;;;;5049949;27;8867;-79
2021/12/15 15:18:25;;;;;;;;;47.25;41.75;;;;;;;;5049976;28;8866;-77
2021/12/15 15:20:54;;;;;;;;;66.00;54.25;;;;;;;;5049367;28;8784;-78
2021/12/15 15:23:22;;;;;;;;;55.25;47.25;;;;;;;;5049292;27;11638;-78
2021/12/15 15:25:52;;;;;;;;;13.25;12.75;;;;;;;;5046458;28;8808;-79
2021/12/15 15:28:23;;;;;;;;;52.80;45.60;;;;;;;;5046043;27;8784;-79
2021/12/15 15:30:50;;;;;;;;;55.20;46.60;;;;;;;;5054192;27;8819;-78
2021/12/15 15:33:18;;;;;;;;;39.40;36.20;;;;;;;;5043630;27;8818;-77
2021/12/15 15:35:48;;;;;;;;;18.80;18.80;;;;;;;;5048941;27;8752;-77
2021/12/15 15:38:16;;;;;;;;;36.60;33.80;;;;;;;;5048836;28;8906;-77
2021/12/15 15:40:43;;;;;;;;;44.25;40.25;;;;;;;;5051396;27;8808;-77
2021/12/15 15:43:19;;;;;;;;;28.25;27.75;;;;;;;;5070310;27;8967;-77
2021/12/15 15:45:47;;;;;;;;;2.00;1.00;;;;;;;;5044044;28;9742;-77
2021/12/15 15:48:17;;;;;;;;;28.75;27.50;;;;;;;;5048455;27;8869;-78